createdAt,value
2022-12-25T11:05:03.614Z,10.00
2022-12-25T11:07:33.229Z,9.90
2022-12-25T11:10:05.539Z,10.10
2022-12-25T11:12:45.401Z,10.30
2022-12-25T11:15:38.943Z,10.50
2022-12-25T11:18:20.160Z,10.50
2022-12-25T11:20:58.118Z,10.60
2022-12-25T11:23:29.151Z,10.70
2022-12-25T11:25:58.451Z,10.70
2022-12-25T11:28:26.679Z,10.70
2022-12-25T11:31:00.429Z,10.70
2022-12-25T11:33:35.191Z,10.70
2022-12-25T11:36:11.320Z,10.60
2022-12-25T11:38:39.609Z,10.50
2022-12-25T11:41:34.611Z,10.40
2022-12-25T11:44:32.135Z,10.40
2022-12-25T11:47:08.602Z,10.30
2022-12-25T11:49:49.483Z,10.40
2022-12-25T11:52:21.734Z,10.50
2022-12-25T11:54:57.310Z,10.50
2022-12-25T11:57:28.854Z,10.60
2022-12-25T12:00:04.009Z,10.70
2022-12-25T12:02:38.262Z,10.70
2022-12-25T12:05:16.117Z,10.80
2022-12-25T12:07:54.722Z,10.80
2022-12-25T12:10:32.562Z,10.80
2022-12-25T12:13:14.489Z,10.80
2022-12-25T12:15:47.807Z,10.90
2022-12-25T12:18:23.174Z,10.90
2022-12-25T12:21:03.275Z,10.90
2022-12-25T12:23:36.371Z,10.90
2022-12-25T12:26:05.249Z,10.80
2022-12-25T12:28:46.017Z,10.80
2022-12-25T12:31:14.831Z,10.70
2022-12-25T12:33:50.039Z,10.50
2022-12-25T12:36:25.135Z,10.30
2022-12-25T12:39:06.211Z,10.10
2022-12-25T12:41:45.961Z,10.00
2022-12-25T12:44:15.680Z,10.00
2022-12-25T12:46:53.319Z,10.00
2022-12-25T12:49:25.009Z,10.00
2022-12-25T12:52:05.763Z,10.00
2022-12-25T12:54:55.947Z,9.90
2022-12-25T12:57:32.884Z,10.00
2022-12-25T13:00:10.000Z,10.00
2022-12-25T13:03:11.362Z,9.90
2022-12-25T13:05:46.183Z,9.80
2022-12-25T13:08:28.982Z,9.70
2022-12-25T13:11:11.774Z,9.60
2022-12-25T13:13:42.741Z,9.40
2022-12-25T13:16:23.027Z,9.40
2022-12-25T13:18:53.116Z,9.30
2022-12-25T13:21:25.434Z,9.30
2022-12-25T13:23:58.433Z,9.30
2022-12-25T13:26:28.736Z,9.30
2022-12-25T13:28:57.428Z,9.20
2022-12-25T13:31:29.662Z,9.20
2022-12-25T13:34:00.766Z,9.20
2022-12-25T13:36:32.038Z,9.20
2022-12-25T13:39:00.682Z,9.10
2022-12-25T13:41:59.993Z,9.10
2022-12-25T13:44:32.310Z,9.00
2022-12-25T13:47:16.870Z,9.00
2022-12-25T13:49:45.325Z,8.90
2022-12-25T13:52:15.344Z,8.90
2022-12-25T13:54:54.606Z,8.90
2022-12-25T13:57:28.072Z,8.90
2022-12-25T14:00:23.359Z,8.80
2022-12-25T14:02:52.730Z,8.80
2022-12-25T14:05:34.581Z,8.80
2022-12-25T14:08:16.060Z,8.80
2022-12-25T14:10:49.478Z,8.80
2022-12-25T14:13:23.671Z,8.80
2022-12-25T14:15:53.443Z,8.90
2022-12-25T14:18:23.955Z,8.80
2022-12-25T14:21:02.386Z,8.80
2022-12-25T14:23:40.209Z,8.80
2022-12-25T14:26:08.672Z,8.70
2022-12-25T14:28:38.264Z,8.60
2022-12-25T14:31:06.690Z,8.60
2022-12-25T14:33:40.248Z,8.60
2022-12-25T14:36:12.304Z,8.50
2022-12-25T14:38:45.473Z,8.50
2022-12-25T14:41:33.407Z,8.50
2022-12-25T14:44:07.257Z,8.60
2022-12-25T14:46:35.920Z,8.60
2022-12-25T14:49:05.799Z,8.60
2022-12-25T14:51:36.230Z,8.70
2022-12-25T14:54:06.378Z,8.70
2022-12-25T14:56:39.252Z,8.70
2022-12-25T14:59:19.449Z,8.60
2022-12-25T15:01:54.339Z,8.70
2022-12-25T15:04:23.796Z,8.70
2022-12-25T15:06:56.200Z,8.70
2022-12-25T15:09:28.073Z,8.70
2022-12-25T15:11:57.585Z,8.70
2022-12-25T15:14:31.695Z,8.70
2022-12-25T15:17:02.193Z,8.80
2022-12-25T15:19:37.845Z,8.90
2022-12-25T15:22:11.210Z,8.90
2022-12-25T15:24:39.538Z,8.90
2022-12-25T15:27:17.192Z,8.90
2022-12-25T15:32:38.957Z,9.10
2022-12-25T15:35:22.794Z,9.10
2022-12-25T15:37:55.489Z,9.10
2022-12-25T15:40:23.713Z,9.10
2022-12-25T15:42:56.242Z,9.10
2022-12-25T15:45:28.230Z,9.10
2022-12-25T15:47:59.050Z,9.10
2022-12-25T15:50:27.600Z,9.10
2022-12-25T15:52:56.303Z,9.10
2022-12-25T15:55:24.811Z,9.00
2022-12-25T15:57:54.733Z,9.10
2022-12-25T16:00:25.880Z,9.00
2022-12-25T16:02:55.246Z,9.10
2022-12-25T16:05:24.303Z,9.10
2022-12-25T16:07:52.357Z,9.10
2022-12-25T16:10:22.722Z,9.10
2022-12-25T16:12:50.772Z,9.10
2022-12-25T16:15:18.947Z,9.10
2022-12-25T16:17:48.331Z,9.10
2022-12-25T16:20:18.276Z,9.10
2022-12-25T16:22:56.629Z,9.10
2022-12-25T16:25:25.058Z,9.10
2022-12-25T16:27:53.014Z,9.10
2022-12-25T16:30:32.248Z,9.10
2022-12-25T16:33:04.646Z,9.10
2022-12-25T16:35:33.142Z,9.00
2022-12-25T16:38:01.912Z,9.00
2022-12-25T16:40:30.390Z,9.00
2022-12-25T16:42:58.481Z,9.00
2022-12-25T16:45:26.585Z,8.90
2022-12-25T16:47:54.736Z,8.80
2022-12-25T16:50:24.450Z,8.80
2022-12-25T16:52:55.604Z,8.80
2022-12-25T16:55:29.650Z,8.80
2022-12-25T16:57:58.852Z,8.90
2022-12-25T17:00:27.459Z,9.00
2022-12-25T17:03:01.362Z,9.10
2022-12-25T17:05:35.702Z,9.10
2022-12-25T17:08:06.544Z,9.10
2022-12-25T17:10:37.556Z,9.10
2022-12-25T17:13:08.308Z,9.20
2022-12-25T17:15:36.425Z,9.30
2022-12-25T17:18:04.908Z,9.30
2022-12-25T17:20:38.133Z,9.30
2022-12-25T17:23:06.424Z,9.30
2022-12-25T17:25:36.758Z,9.40
2022-12-25T17:28:09.049Z,9.30
2022-12-25T17:30:37.300Z,9.30
2022-12-25T17:33:05.520Z,9.30
2022-12-25T17:35:38.367Z,9.30
2022-12-25T17:38:06.351Z,9.40
2022-12-25T17:40:34.552Z,9.40
2022-12-25T17:43:04.114Z,9.40
2022-12-25T17:45:39.456Z,9.40
2022-12-25T17:48:07.536Z,9.30
2022-12-25T17:50:41.649Z,9.40
2022-12-25T17:53:11.900Z,9.40
2022-12-25T17:55:42.771Z,9.50
2022-12-25T17:58:14.420Z,9.50
2022-12-25T18:00:44.977Z,9.40
2022-12-25T18:03:15.156Z,9.40
2022-12-25T18:05:45.443Z,9.50
2022-12-25T18:08:18.335Z,9.50
2022-12-25T18:10:47.614Z,9.50
2022-12-25T18:13:20.958Z,9.60
2022-12-25T18:16:08.482Z,9.60
2022-12-25T18:18:36.873Z,9.70
2022-12-25T18:21:07.289Z,9.60
2022-12-25T18:23:40.338Z,9.70
2022-12-25T18:26:18.101Z,9.60
2022-12-25T18:28:47.128Z,9.60
2022-12-25T18:31:20.102Z,9.60
2022-12-25T18:33:55.073Z,9.70
2022-12-25T18:36:26.725Z,9.60
2022-12-25T18:38:58.315Z,9.70
2022-12-25T18:41:28.186Z,9.70
2022-12-25T18:44:00.693Z,9.60
2022-12-25T18:46:33.259Z,9.60
2022-12-25T18:49:02.997Z,9.60
2022-12-25T18:51:37.117Z,9.60
2022-12-25T18:54:07.401Z,9.50
2022-12-25T18:56:39.968Z,9.50
2022-12-25T18:59:08.035Z,9.60
2022-12-25T19:01:41.506Z,9.50
2022-12-25T19:04:14.695Z,9.60
2022-12-25T19:06:49.226Z,9.60
2022-12-25T19:09:22.289Z,9.60
2022-12-25T19:11:51.581Z,9.60
2022-12-25T19:14:21.721Z,9.60
2022-12-25T19:16:50.699Z,9.50
2022-12-25T19:19:26.079Z,9.40
2022-12-25T19:22:04.325Z,9.50
2022-12-25T19:24:35.017Z,9.50
2022-12-25T19:27:04.725Z,9.40
2022-12-25T19:29:34.162Z,9.30
2022-12-25T19:32:03.776Z,9.40
2022-12-25T19:34:36.028Z,9.40
2022-12-25T19:37:06.177Z,9.40
2022-12-25T19:39:36.880Z,9.30
2022-12-25T19:42:08.252Z,9.30
2022-12-25T19:44:36.485Z,9.20
2022-12-25T19:47:09.577Z,9.10
2022-12-25T19:49:38.613Z,9.20
2022-12-25T19:52:14.758Z,9.10
2022-12-25T19:54:42.808Z,9.00
2022-12-25T19:57:13.949Z,8.90
2022-12-25T19:59:42.080Z,8.90
2022-12-25T20:02:16.711Z,8.80
2022-12-25T20:04:44.809Z,8.70
2022-12-25T20:07:18.729Z,8.70
2022-12-25T20:09:47.076Z,8.60
2022-12-25T20:12:16.373Z,8.70
2022-12-25T20:14:44.440Z,8.70
2022-12-25T20:17:16.309Z,8.70
2022-12-25T20:19:46.890Z,8.80
2022-12-25T20:22:17.344Z,8.90
2022-12-25T20:24:48.060Z,9.00
2022-12-25T20:27:29.136Z,9.00
2022-12-25T20:30:00.688Z,9.10
2022-12-25T20:32:34.918Z,9.10
2022-12-25T20:35:09.275Z,9.20
2022-12-25T20:37:39.815Z,9.20
2022-12-25T20:40:12.192Z,9.30
2022-12-25T20:42:42.701Z,9.30
2022-12-25T20:45:13.437Z,9.20
2022-12-25T20:47:42.901Z,9.20
2022-12-25T20:50:23.247Z,9.30
2022-12-25T20:53:00.781Z,9.30
2022-12-25T20:55:29.023Z,9.30
2022-12-25T20:57:57.084Z,9.30
2022-12-25T21:00:25.214Z,9.30
2022-12-25T21:02:53.286Z,9.30
2022-12-25T21:05:21.410Z,9.30
2022-12-25T21:07:49.369Z,9.30
2022-12-25T21:10:21.035Z,9.20
2022-12-25T21:12:49.335Z,9.20
2022-12-25T21:15:17.564Z,9.20
2022-12-25T21:17:45.556Z,9.20
2022-12-25T21:20:17.187Z,9.20
2022-12-25T21:22:45.229Z,9.20
2022-12-25T21:25:13.244Z,9.10
2022-12-25T21:27:42.634Z,9.00
2022-12-25T21:30:14.547Z,9.00
2022-12-25T21:33:04.272Z,9.00
2022-12-25T21:35:32.626Z,9.00
2022-12-25T21:38:00.551Z,9.00
2022-12-25T21:40:28.628Z,9.00
2022-12-25T21:42:58.024Z,8.90
2022-12-25T21:45:26.164Z,9.00
2022-12-25T21:48:02.465Z,9.10
2022-12-25T21:50:48.629Z,9.10
2022-12-25T21:53:17.464Z,9.00
2022-12-25T21:55:57.023Z,9.10
2022-12-25T21:58:26.466Z,9.00
2022-12-25T22:00:54.897Z,9.00
2022-12-25T22:03:24.277Z,9.00
2022-12-25T22:06:16.097Z,9.00
2022-12-25T22:08:47.322Z,9.00
2022-12-25T22:11:29.615Z,9.00
2022-12-25T22:14:51.103Z,9.00
2022-12-25T22:17:33.717Z,9.10
2022-12-25T22:20:02.760Z,9.10
2022-12-25T22:22:36.105Z,9.00
2022-12-25T22:25:06.491Z,9.00
2022-12-25T22:27:36.383Z,9.00
2022-12-25T22:30:11.743Z,8.90
2022-12-25T22:32:40.765Z,8.90
2022-12-25T22:35:10.346Z,9.00
2022-12-25T22:37:48.304Z,9.00
2022-12-25T22:40:18.949Z,9.00
2022-12-25T22:42:47.605Z,9.00
2022-12-25T22:45:21.431Z,8.90
2022-12-25T22:47:53.460Z,9.00
2022-12-25T22:50:25.996Z,9.00
2022-12-25T22:52:58.329Z,8.90
2022-12-25T22:55:27.454Z,8.80
2022-12-25T22:57:56.061Z,8.80
2022-12-25T23:00:28.415Z,8.70
2022-12-25T23:02:56.676Z,8.70
2022-12-25T23:05:26.373Z,8.60
2022-12-25T23:07:54.477Z,8.60
2022-12-25T23:10:26.034Z,8.60
2022-12-25T23:13:18.850Z,8.50
2022-12-25T23:15:48.913Z,8.60
2022-12-25T23:18:42.727Z,8.70
2022-12-25T23:21:31.089Z,8.70
2022-12-25T23:24:16.475Z,8.80
2022-12-25T23:26:45.035Z,8.90
2022-12-25T23:29:31.528Z,8.80
2022-12-25T23:32:05.471Z,8.80
2022-12-25T23:34:33.801Z,8.90
2022-12-25T23:37:02.185Z,8.90
2022-12-25T23:39:31.188Z,8.90
2022-12-25T23:41:59.623Z,9.00
2022-12-25T23:44:29.576Z,9.00
2022-12-25T23:46:58.220Z,9.10
2022-12-25T23:49:29.253Z,9.20
2022-12-25T23:51:57.681Z,9.20
2022-12-25T23:54:27.812Z,9.30
2022-12-25T23:56:57.321Z,9.30
2022-12-25T23:59:26.048Z,9.30
